createdAt,value
2023-04-23T00:01:39.217Z,0.60
2023-04-23T00:04:07.010Z,0.80
2023-04-23T00:06:33.660Z,0.77
2023-04-23T00:09:00.704Z,0.70
2023-04-23T00:11:27.742Z,0.73
2023-04-23T00:13:54.425Z,0.70
2023-04-23T00:16:21.260Z,0.70
2023-04-23T00:18:48.060Z,0.80
2023-04-23T00:21:15.160Z,0.70
2023-04-23T00:23:41.854Z,0.70
2023-04-23T00:26:08.205Z,0.70
2023-04-23T00:28:34.604Z,0.80
2023-04-23T00:31:01.038Z,0.80
2023-04-23T00:33:27.398Z,0.70
2023-04-23T00:35:53.953Z,0.70
2023-04-23T00:38:21.219Z,0.80
2023-04-23T00:40:47.568Z,0.60
2023-04-23T00:43:15.402Z,0.60
2023-04-23T00:45:41.870Z,1.00
2023-04-23T00:48:08.287Z,0.60
2023-04-23T00:50:34.850Z,0.60
2023-04-23T00:53:01.197Z,0.50
2023-04-23T00:55:27.652Z,0.60
2023-04-23T00:57:54.853Z,0.73
2023-04-23T01:00:21.340Z,0.67
2023-04-23T01:02:47.906Z,0.50
2023-04-23T01:05:14.610Z,0.60
2023-04-23T01:07:41.007Z,0.97
2023-04-23T01:10:07.856Z,0.60
2023-04-23T01:12:34.536Z,0.70
2023-04-23T01:15:01.194Z,0.67
2023-04-23T01:17:27.597Z,0.80
2023-04-23T01:19:54.158Z,0.80
2023-04-23T01:22:20.640Z,0.60
2023-04-23T01:24:47.125Z,0.60
2023-04-23T01:27:13.760Z,0.77
2023-04-23T01:29:40.293Z,0.80
2023-04-23T01:32:07.577Z,0.70
2023-04-23T01:34:33.971Z,0.70
2023-04-23T01:37:00.336Z,0.60
2023-04-23T01:39:26.760Z,0.60
2023-04-23T01:41:53.408Z,0.60
2023-04-23T01:44:19.774Z,0.70
2023-04-23T01:46:46.776Z,0.60
2023-04-23T01:49:13.329Z,0.80
2023-04-23T01:51:39.661Z,0.70
2023-04-23T01:54:06.040Z,0.67
2023-04-23T01:56:35.036Z,0.70
2023-04-23T01:59:01.725Z,0.80
2023-04-23T02:01:48.739Z,0.60
2023-04-23T02:04:15.763Z,0.50
2023-04-23T02:06:43.523Z,0.70
2023-04-23T02:09:10.147Z,0.80
2023-04-23T02:11:36.489Z,0.70
2023-04-23T02:14:03.106Z,0.60
2023-04-23T02:16:29.798Z,0.70
2023-04-23T02:18:56.338Z,0.50
2023-04-23T02:21:24.259Z,0.70
2023-04-23T02:23:51.101Z,0.53
2023-04-23T02:26:18.681Z,1.27
2023-04-23T02:28:45.997Z,0.70
2023-04-23T02:31:12.619Z,1.13
2023-04-23T02:33:39.011Z,0.87
2023-04-23T02:36:05.775Z,0.80
2023-04-23T02:38:32.418Z,0.60
2023-04-23T02:40:58.853Z,1.00
2023-04-23T02:43:25.224Z,0.97
2023-04-23T02:45:51.588Z,0.80
2023-04-23T02:48:18.291Z,0.70
2023-04-23T02:50:44.711Z,1.07
2023-04-23T02:53:11.292Z,0.60
2023-04-23T02:55:37.659Z,0.60
2023-04-23T02:58:03.996Z,0.70
2023-04-23T03:00:30.423Z,0.60
2023-04-23T03:02:56.930Z,0.73
2023-04-23T03:05:23.364Z,1.30
2023-04-23T03:07:49.742Z,0.80
2023-04-23T03:10:16.188Z,0.60
2023-04-23T03:12:42.540Z,0.70
2023-04-23T03:15:09.397Z,0.80
2023-04-23T03:17:35.777Z,0.80
2023-04-23T03:20:03.320Z,0.90
2023-04-23T03:22:29.861Z,0.73
2023-04-23T03:24:56.227Z,0.67
2023-04-23T03:27:22.614Z,0.87
2023-04-23T03:29:49.010Z,0.60
2023-04-23T03:32:15.393Z,0.70
2023-04-23T03:34:41.905Z,2.00
2023-04-23T03:37:08.548Z,1.00
2023-04-23T03:39:34.919Z,0.90
2023-04-23T03:42:01.956Z,0.90
2023-04-23T03:44:28.427Z,0.80
2023-04-23T03:46:54.828Z,0.90
2023-04-23T03:49:21.208Z,1.33
2023-04-23T03:51:47.760Z,1.37
2023-04-23T03:54:14.129Z,1.23
2023-04-23T03:56:40.584Z,1.13
2023-04-23T03:59:07.152Z,0.83
2023-04-23T04:01:36.085Z,0.90
2023-04-23T04:04:02.794Z,1.10
2023-04-23T04:06:29.394Z,1.17
2023-04-23T04:08:55.860Z,1.27
2023-04-23T04:11:22.213Z,1.47
2023-04-23T04:13:48.757Z,0.90
2023-04-23T04:16:15.145Z,1.53
2023-04-23T04:18:41.994Z,2.10
2023-04-23T04:21:08.443Z,2.17
2023-04-23T04:23:35.013Z,0.73
2023-04-23T04:26:02.386Z,1.00
2023-04-23T04:28:28.943Z,1.77
2023-04-23T04:30:57.438Z,0.73
2023-04-23T04:33:25.657Z,1.43
2023-04-23T04:35:52.048Z,1.60
2023-04-23T04:38:18.403Z,2.27
2023-04-23T04:40:45.566Z,1.67
2023-04-23T04:43:12.275Z,1.17
2023-04-23T04:45:38.637Z,1.27
2023-04-23T04:48:05.103Z,1.53
2023-04-23T04:50:31.685Z,1.80
2023-04-23T04:52:58.074Z,0.87
2023-04-23T04:55:24.441Z,1.93
2023-04-23T04:57:51.212Z,1.27
2023-04-23T05:00:22.459Z,1.10
2023-04-23T05:02:52.414Z,0.90
2023-04-23T05:05:19.348Z,1.13
2023-04-23T05:07:45.766Z,1.57
2023-04-23T05:10:12.198Z,1.50
2023-04-23T05:12:41.413Z,1.10
2023-04-23T05:15:09.590Z,1.80
2023-04-23T05:17:37.019Z,1.60
2023-04-23T05:20:03.622Z,1.87
2023-04-23T05:22:30.490Z,1.73
2023-04-23T05:24:57.110Z,1.57
2023-04-23T05:27:23.590Z,1.47
2023-04-23T05:29:49.940Z,1.33
2023-04-23T05:32:16.582Z,1.40
2023-04-23T05:34:43.072Z,1.33
2023-04-23T05:37:09.673Z,1.67
2023-04-23T05:39:36.215Z,0.90
2023-04-23T05:42:03.002Z,1.17
2023-04-23T05:44:29.860Z,1.27
2023-04-23T05:46:56.434Z,1.33
2023-04-23T05:49:22.914Z,1.37
2023-04-23T05:51:49.688Z,1.37
2023-04-23T05:54:16.224Z,1.60
2023-04-23T05:56:42.591Z,1.47
2023-04-23T05:59:08.970Z,1.30
2023-04-23T06:01:36.068Z,1.27
2023-04-23T06:04:02.569Z,1.90
2023-04-23T06:06:29.140Z,1.60
2023-04-23T06:08:55.933Z,1.10
2023-04-23T06:11:22.358Z,1.30
2023-04-23T06:13:48.694Z,2.03
2023-04-23T06:16:15.202Z,0.97
2023-04-23T06:18:41.561Z,1.70
2023-04-23T06:21:07.905Z,1.60
2023-04-23T06:23:34.604Z,1.87
2023-04-23T06:26:00.941Z,1.13
2023-04-23T06:28:27.310Z,2.53
2023-04-23T06:30:56.594Z,1.40
2023-04-23T06:33:22.935Z,1.77
2023-04-23T06:35:49.426Z,1.70
2023-04-23T06:38:15.905Z,1.77
2023-04-23T06:40:42.307Z,1.63
2023-04-23T06:43:09.852Z,1.47
2023-04-23T06:45:36.419Z,2.03
2023-04-23T06:48:02.786Z,1.43
2023-04-23T06:50:29.354Z,2.70
2023-04-23T06:52:56.475Z,2.13
2023-04-23T06:55:26.060Z,2.10
2023-04-23T06:57:53.121Z,1.10
2023-04-23T07:00:19.836Z,1.53
2023-04-23T07:02:47.112Z,1.53
2023-04-23T07:05:13.606Z,1.87
2023-04-23T07:07:40.695Z,1.77
2023-04-23T07:10:07.789Z,1.53
2023-04-23T07:12:34.125Z,0.90
2023-04-23T07:15:00.964Z,2.03
2023-04-23T07:17:27.365Z,1.47
2023-04-23T07:19:53.728Z,1.80
2023-04-23T07:22:20.410Z,2.50
2023-04-23T07:24:46.752Z,1.53
2023-04-23T07:27:13.120Z,1.60
2023-04-23T07:29:39.482Z,1.63
2023-04-23T07:32:05.873Z,0.93
2023-04-23T07:34:32.258Z,1.47
2023-04-23T07:36:59.134Z,1.63
2023-04-23T07:39:25.477Z,1.70
2023-04-23T07:41:51.837Z,1.87
2023-04-23T07:44:18.243Z,1.10
2023-04-23T07:46:44.589Z,2.47
2023-04-23T07:49:10.970Z,3.57
2023-04-23T07:51:37.626Z,1.90
2023-04-23T07:54:04.202Z,2.23
2023-04-23T07:56:32.398Z,1.50
2023-04-23T07:58:59.722Z,1.70
2023-04-23T08:01:26.354Z,2.53
2023-04-23T08:03:53.164Z,1.03
2023-04-23T08:06:19.884Z,2.07
2023-04-23T08:08:46.240Z,0.97
2023-04-23T08:11:12.611Z,1.37
2023-04-23T08:13:39.089Z,1.57
2023-04-23T08:16:05.733Z,1.30
2023-04-23T08:18:32.093Z,1.37
2023-04-23T08:20:58.712Z,1.53
2023-04-23T08:23:25.434Z,1.63
2023-04-23T08:25:51.773Z,1.23
2023-04-23T08:28:18.988Z,1.20
2023-04-23T08:30:45.687Z,1.93
2023-04-23T08:33:12.282Z,2.17
2023-04-23T08:35:38.712Z,0.93
2023-04-23T08:38:05.270Z,0.93
2023-04-23T08:40:32.229Z,2.40
2023-04-23T08:43:04.940Z,1.70
2023-04-23T08:45:31.429Z,2.00
2023-04-23T08:48:02.449Z,1.07
2023-04-23T08:50:29.727Z,1.17
2023-04-23T08:52:56.939Z,1.10
2023-04-23T08:55:23.747Z,1.23
2023-04-23T08:57:50.284Z,2.13
2023-04-23T09:00:18.814Z,1.20
2023-04-23T09:02:46.862Z,1.83
2023-04-23T09:05:13.814Z,1.30
2023-04-23T09:07:40.742Z,2.67
2023-04-23T09:10:08.141Z,1.83
2023-04-23T09:12:39.027Z,2.07
2023-04-23T09:15:12.663Z,1.13
2023-04-23T09:17:41.129Z,1.33
2023-04-23T09:20:11.261Z,1.10
2023-04-23T09:22:48.558Z,1.03
2023-04-23T09:25:16.606Z,1.70
2023-04-23T09:27:43.848Z,1.70
2023-04-23T09:30:11.110Z,1.50
2023-04-23T09:32:39.314Z,0.90
2023-04-23T09:35:07.342Z,1.00
2023-04-23T09:37:34.351Z,1.50
2023-04-23T09:40:10.504Z,1.03
2023-04-23T09:42:36.988Z,1.07
2023-04-23T09:45:05.666Z,1.93
2023-04-23T09:47:38.224Z,1.33
2023-04-23T09:50:05.622Z,1.07
2023-04-23T09:52:32.446Z,1.23
2023-04-23T09:55:01.873Z,0.70
2023-04-23T09:57:28.306Z,0.97
2023-04-23T10:00:07.283Z,1.33
2023-04-23T10:02:41.069Z,1.07
2023-04-23T10:05:24.511Z,1.20
2023-04-23T10:07:52.285Z,1.27
2023-04-23T10:10:19.417Z,0.90
2023-04-23T10:12:54.849Z,1.00
2023-04-23T10:15:21.905Z,1.30
2023-04-23T10:17:49.421Z,0.90
2023-04-23T10:20:15.792Z,0.70
2023-04-23T10:22:42.397Z,1.13
2023-04-23T10:25:09.852Z,0.60
2023-04-23T10:27:53.126Z,1.00
2023-04-23T10:30:20.949Z,1.13
2023-04-23T10:32:48.442Z,0.90
2023-04-23T10:35:14.920Z,0.90
2023-04-23T10:37:41.787Z,1.03
2023-04-23T10:40:11.494Z,0.63
2023-04-23T10:42:39.453Z,1.07
2023-04-23T10:45:24.238Z,0.90
2023-04-23T10:47:53.343Z,1.70
2023-04-23T10:50:29.871Z,0.90
2023-04-23T10:52:57.047Z,0.80
2023-04-23T10:55:25.504Z,0.67
2023-04-23T10:58:04.249Z,0.80
2023-04-23T11:00:48.424Z,1.00
2023-04-23T11:03:44.540Z,0.80
2023-04-23T11:06:17.950Z,1.03
2023-04-23T11:08:53.920Z,0.80
2023-04-23T11:11:25.086Z,0.80
2023-04-23T11:13:52.544Z,1.07
2023-04-23T11:16:22.797Z,1.47
2023-04-23T11:19:03.717Z,0.50
2023-04-23T11:22:01.621Z,0.57
2023-04-23T11:24:41.837Z,0.90
2023-04-23T11:27:13.258Z,0.80
2023-04-23T11:29:41.029Z,0.60
2023-04-23T11:32:10.736Z,0.45
2023-04-23T11:34:37.757Z,0.90
2023-04-23T11:37:04.900Z,0.98
2023-04-23T11:39:31.432Z,0.95
2023-04-23T11:41:59.428Z,0.52
2023-04-23T11:44:25.943Z,0.30
2023-04-23T11:46:52.354Z,0.52
2023-04-23T11:49:18.832Z,0.30
2023-04-23T11:51:45.610Z,0.63
2023-04-23T11:54:13.566Z,0.40
2023-04-23T11:56:40.675Z,0.30
2023-04-23T11:59:07.147Z,0.60
2023-04-23T12:01:41.703Z,0.93
2023-04-23T12:04:15.875Z,0.63
2023-04-23T12:06:44.225Z,0.35
2023-04-23T12:09:12.067Z,0.57
2023-04-23T12:11:39.321Z,0.43
2023-04-23T12:14:06.161Z,0.43
2023-04-23T12:16:52.053Z,0.50
2023-04-23T12:19:26.320Z,0.60
2023-04-23T12:22:02.394Z,1.17
2023-04-23T12:24:48.610Z,0.60
2023-04-23T12:27:15.848Z,0.50
2023-04-23T12:29:42.738Z,0.38
2023-04-23T12:32:10.815Z,0.55
2023-04-23T12:34:37.162Z,0.50
2023-04-23T12:37:06.547Z,0.95
2023-04-23T12:39:34.169Z,0.40
2023-04-23T12:42:05.086Z,0.68
2023-04-23T12:44:33.384Z,0.50
2023-04-23T12:47:03.246Z,0.40
2023-04-23T12:49:29.836Z,0.38
2023-04-23T12:51:57.754Z,0.60
2023-04-23T12:54:28.121Z,0.65
2023-04-23T12:56:54.494Z,0.75
2023-04-23T12:59:21.209Z,0.60
2023-04-23T13:01:47.948Z,0.52
2023-04-23T13:04:14.604Z,0.68
2023-04-23T13:06:41.542Z,0.30
2023-04-23T13:09:11.422Z,0.40
2023-04-23T13:11:38.497Z,1.02
2023-04-23T13:14:05.438Z,0.47
2023-04-23T13:16:32.063Z,0.50
2023-04-23T13:18:59.857Z,0.50
2023-04-23T13:21:26.787Z,0.30
2023-04-23T13:23:53.452Z,0.60
2023-04-23T13:26:19.845Z,0.60
2023-04-23T13:28:46.241Z,0.60
2023-04-23T13:31:13.802Z,0.40
2023-04-23T13:33:40.304Z,0.45
2023-04-23T13:36:07.104Z,0.82
2023-04-23T13:38:33.512Z,0.55
2023-04-23T13:40:59.898Z,0.45
2023-04-23T13:43:26.250Z,0.47
2023-04-23T13:45:52.928Z,0.60
2023-04-23T13:48:19.447Z,0.50
2023-04-23T13:50:45.815Z,0.40
2023-04-23T13:53:12.284Z,0.60
2023-04-23T13:55:38.689Z,0.40
2023-04-23T13:58:05.586Z,0.50
2023-04-23T14:00:32.126Z,0.40
2023-04-23T14:02:58.636Z,0.50
2023-04-23T14:05:25.187Z,0.40
2023-04-23T14:07:51.694Z,0.80
2023-04-23T14:10:18.714Z,0.40
2023-04-23T14:12:46.062Z,0.50
2023-04-23T14:15:12.736Z,0.77
2023-04-23T14:17:40.522Z,0.45
2023-04-23T14:20:07.646Z,0.40
2023-04-23T14:22:34.014Z,0.40
2023-04-23T14:25:08.024Z,0.40
2023-04-23T14:27:34.810Z,0.35
2023-04-23T14:30:04.964Z,0.40
2023-04-23T14:32:31.971Z,0.30
2023-04-23T14:34:58.589Z,0.30
2023-04-23T14:37:24.942Z,0.30
2023-04-23T14:39:51.343Z,0.30
2023-04-23T14:42:17.924Z,0.30
2023-04-23T14:44:44.282Z,0.32
2023-04-23T14:47:11.800Z,0.40
2023-04-23T14:49:38.241Z,0.40
2023-04-23T14:52:04.641Z,0.57
2023-04-23T14:54:30.984Z,0.30
2023-04-23T14:56:57.371Z,0.65
2023-04-23T14:59:23.744Z,0.50
2023-04-23T15:01:50.333Z,0.30
2023-04-23T15:04:16.970Z,0.60
2023-04-23T15:06:43.381Z,0.50
2023-04-23T15:09:09.747Z,0.40
2023-04-23T15:11:37.894Z,0.57
2023-04-23T15:14:19.444Z,0.38
2023-04-23T15:16:49.496Z,0.38
2023-04-23T15:19:19.649Z,0.50
2023-04-23T15:21:46.750Z,0.40
2023-04-23T15:24:13.227Z,0.68
2023-04-23T15:26:39.634Z,0.40
2023-04-23T15:29:08.781Z,0.43
2023-04-23T15:31:36.402Z,0.60
2023-04-23T15:34:02.821Z,0.67
2023-04-23T15:36:29.245Z,0.70
2023-04-23T15:38:55.699Z,0.60
2023-04-23T15:41:22.064Z,0.67
2023-04-23T15:43:50.337Z,0.47
2023-04-23T15:46:16.845Z,0.50
2023-04-23T15:48:43.940Z,0.60
2023-04-23T15:51:10.362Z,0.63
2023-04-23T15:53:36.719Z,0.53
2023-04-23T15:56:03.138Z,0.73
2023-04-23T15:58:29.524Z,0.40
2023-04-23T16:00:56.332Z,0.50
2023-04-23T16:03:22.792Z,0.50
2023-04-23T16:05:50.953Z,0.40
2023-04-23T16:08:17.399Z,0.50
2023-04-23T16:10:43.778Z,0.60
2023-04-23T16:13:10.355Z,0.50
2023-04-23T16:15:36.836Z,0.57
2023-04-23T16:18:03.367Z,0.50
2023-04-23T16:20:29.966Z,0.70
2023-04-23T16:22:56.362Z,0.60
2023-04-23T16:25:22.818Z,0.40
2023-04-23T16:27:49.338Z,0.50
2023-04-23T16:30:16.370Z,0.60
2023-04-23T16:32:42.761Z,0.50
2023-04-23T16:35:09.699Z,0.50
2023-04-23T16:37:36.181Z,0.50
2023-04-23T16:40:02.626Z,0.50
2023-04-23T16:42:29.074Z,0.50
2023-04-23T16:44:55.513Z,0.50
2023-04-23T16:47:21.912Z,0.50
2023-04-23T16:49:48.591Z,0.50
2023-04-23T16:52:14.975Z,0.50
2023-04-23T16:54:41.521Z,0.60
2023-04-23T16:57:08.063Z,0.60
2023-04-23T16:59:34.480Z,0.60
2023-04-23T17:02:00.934Z,0.57
2023-04-23T17:04:27.546Z,0.53
2023-04-23T17:06:54.065Z,0.50
2023-04-23T17:09:20.569Z,0.50
2023-04-23T17:11:46.934Z,0.60
2023-04-23T17:14:13.405Z,1.00
2023-04-23T17:16:40.011Z,0.50
2023-04-23T17:19:06.673Z,0.50
2023-04-23T17:21:33.053Z,0.50
2023-04-23T17:23:59.418Z,0.60
2023-04-23T17:26:26.428Z,0.60
2023-04-23T17:28:52.832Z,0.70
2023-04-23T17:31:19.264Z,0.60
2023-04-23T17:33:48.971Z,0.50
2023-04-23T17:36:16.742Z,0.50
2023-04-23T17:38:43.148Z,0.70
2023-04-23T17:41:09.629Z,0.40
2023-04-23T17:43:36.037Z,0.50
2023-04-23T17:46:02.847Z,0.60
2023-04-23T17:48:29.824Z,0.60
2023-04-23T17:50:56.471Z,0.50
2023-04-23T17:53:22.910Z,0.50
2023-04-23T17:55:49.280Z,0.70
2023-04-23T17:58:15.662Z,0.50
2023-04-23T18:00:42.379Z,1.13
2023-04-23T18:03:09.684Z,0.40
2023-04-23T18:05:36.257Z,0.50
2023-04-23T18:08:02.819Z,0.60
2023-04-23T18:10:29.447Z,0.53
2023-04-23T18:12:56.142Z,0.43
2023-04-23T18:15:22.614Z,0.50
2023-04-23T18:17:50.273Z,0.50
2023-04-23T18:20:16.706Z,0.50
2023-04-23T18:22:44.248Z,0.40
2023-04-23T18:25:11.505Z,0.50
2023-04-23T18:27:38.163Z,0.47
2023-04-23T18:30:05.785Z,0.50
2023-04-23T18:32:36.478Z,0.70
2023-04-23T18:35:04.171Z,0.50
2023-04-23T18:37:36.415Z,0.50
2023-04-23T18:40:03.891Z,0.50
2023-04-23T18:42:31.444Z,0.50
2023-04-23T18:44:58.102Z,0.70
2023-04-23T18:47:26.012Z,0.43
2023-04-23T18:49:52.967Z,0.50
2023-04-23T18:52:19.406Z,0.50
2023-04-23T18:54:45.838Z,0.50
2023-04-23T18:57:12.219Z,0.67
2023-04-23T18:59:38.638Z,0.53
2023-04-23T19:02:05.277Z,0.50
2023-04-23T19:04:32.922Z,0.57
2023-04-23T19:06:59.708Z,0.50
2023-04-23T19:09:26.548Z,0.50
2023-04-23T19:11:53.535Z,0.87
2023-04-23T19:14:20.013Z,0.60
2023-04-23T19:16:47.156Z,0.60
2023-04-23T19:19:13.596Z,0.50
2023-04-23T19:21:40.076Z,0.60
2023-04-23T19:24:06.521Z,0.70
2023-04-23T19:26:32.887Z,0.63
2023-04-23T19:28:59.326Z,0.57
2023-04-23T19:31:25.864Z,0.60
2023-04-23T19:33:52.294Z,0.60
2023-04-23T19:36:18.691Z,0.50
2023-04-23T19:38:45.751Z,0.70
2023-04-23T19:41:12.318Z,0.50
2023-04-23T19:43:40.284Z,0.60
2023-04-23T19:46:07.026Z,1.10
2023-04-23T19:48:33.424Z,0.60
2023-04-23T19:50:59.858Z,0.50
2023-04-23T19:53:26.654Z,0.90
2023-04-23T19:55:53.015Z,0.50
2023-04-23T19:58:19.500Z,0.60
2023-04-23T20:00:45.994Z,0.70
2023-04-23T20:03:12.590Z,0.60
2023-04-23T20:05:39.233Z,0.60
2023-04-23T20:08:11.316Z,0.77
2023-04-23T20:10:37.947Z,1.10
2023-04-23T20:13:04.666Z,0.70
2023-04-23T20:15:31.239Z,0.50
2023-04-23T20:17:58.936Z,0.53
2023-04-23T20:20:25.645Z,0.70
2023-04-23T20:22:52.046Z,0.60
2023-04-23T20:25:19.708Z,0.50
2023-04-23T20:27:47.153Z,0.80
2023-04-23T20:30:13.816Z,0.70
2023-04-23T20:32:40.263Z,0.60
2023-04-23T20:35:07.000Z,0.80
2023-04-23T20:37:34.796Z,0.60
2023-04-23T20:40:01.238Z,1.07
2023-04-23T20:42:29.054Z,0.60
2023-04-23T20:44:55.502Z,0.50
2023-04-23T20:47:21.879Z,1.00
2023-04-23T20:49:48.317Z,0.60
2023-04-23T20:52:15.236Z,0.60
2023-04-23T20:54:42.172Z,0.50
2023-04-23T20:57:08.611Z,0.70
2023-04-23T20:59:34.976Z,0.70
2023-04-23T21:02:01.325Z,0.60
2023-04-23T21:04:27.861Z,0.50
2023-04-23T21:06:54.315Z,0.80
2023-04-23T21:09:21.010Z,0.50
2023-04-23T21:11:47.386Z,0.53
2023-04-23T21:14:13.723Z,0.80
2023-04-23T21:16:40.185Z,1.27
2023-04-23T21:19:06.561Z,0.80
2023-04-23T21:21:32.988Z,0.70
2023-04-23T21:24:00.583Z,0.60
2023-04-23T21:26:30.778Z,0.60
2023-04-23T21:28:57.420Z,0.60
2023-04-23T21:31:26.794Z,0.70
2023-04-23T21:33:54.829Z,0.60
2023-04-23T21:36:22.554Z,0.50
2023-04-23T21:38:48.924Z,0.60
2023-04-23T21:41:15.599Z,0.60
2023-04-23T21:43:41.945Z,0.60
2023-04-23T21:46:08.374Z,0.60
2023-04-23T21:48:35.633Z,0.60
2023-04-23T21:51:02.221Z,0.70
2023-04-23T21:53:28.585Z,0.50
2023-04-23T21:55:55.123Z,0.70
2023-04-23T21:58:21.799Z,0.90
2023-04-23T22:00:48.955Z,0.60
2023-04-23T22:03:22.602Z,0.60
2023-04-23T22:05:59.227Z,0.60
2023-04-23T22:08:25.997Z,0.50
2023-04-23T22:10:52.349Z,0.50
2023-04-23T22:13:19.832Z,0.60
2023-04-23T22:15:48.651Z,0.50
2023-04-23T22:18:15.496Z,0.63
2023-04-23T22:20:44.639Z,0.60
2023-04-23T22:23:11.268Z,0.63
2023-04-23T22:25:37.624Z,0.60
2023-04-23T22:28:03.986Z,0.73
2023-04-23T22:30:30.738Z,0.60
2023-04-23T22:32:57.126Z,0.60
2023-04-23T22:35:23.608Z,0.60
2023-04-23T22:37:50.326Z,0.80
2023-04-23T22:40:16.698Z,0.70
2023-04-23T22:42:43.045Z,0.60
2023-04-23T22:45:10.127Z,0.60
2023-04-23T22:47:36.834Z,0.60
2023-04-23T22:50:04.873Z,0.70
2023-04-23T22:52:31.587Z,0.60
2023-04-23T22:54:58.028Z,0.60
2023-04-23T22:57:24.440Z,0.63
2023-04-23T22:59:50.913Z,0.60
2023-04-23T23:02:17.352Z,0.53
2023-04-23T23:04:43.924Z,1.10
2023-04-23T23:07:10.994Z,0.70
2023-04-23T23:09:37.344Z,0.73
2023-04-23T23:12:03.996Z,1.13
2023-04-23T23:14:30.599Z,0.67
2023-04-23T23:16:57.201Z,0.80
2023-04-23T23:19:24.279Z,0.70
2023-04-23T23:21:50.826Z,0.50
2023-04-23T23:24:17.456Z,0.60
2023-04-23T23:26:43.970Z,0.60
2023-04-23T23:29:10.400Z,0.60
2023-04-23T23:31:36.941Z,0.63
2023-04-23T23:34:04.098Z,0.70
2023-04-23T23:36:32.334Z,0.60
2023-04-23T23:38:58.735Z,0.80
2023-04-23T23:41:25.072Z,0.57
2023-04-23T23:43:52.116Z,0.50
2023-04-23T23:46:18.604Z,0.60
2023-04-23T23:48:45.528Z,0.60
2023-04-23T23:51:12.367Z,0.60
2023-04-23T23:53:38.919Z,0.60
2023-04-23T23:56:05.609Z,0.63
2023-04-23T23:58:32.043Z,0.70
